Little Rock Air Force Base, Arkansas
Current Conditions -  °F | °C
As of 8:58 PM on Thursday 27 Nov 2014 (Local Time) from KLRF Reporting Station
Clear Clear  
Wind Chill: 31°   Ceiling: Unl
Heat Index: 31°   Visibility: 7mi
Dew Point: 27°   Wind: 0mph
Humidity: 85%   Direction: NA
Pressure: 30.46"   Gusts: NA
Location:  34.9074°N, 92.1397°W
Report Text: KLRF 280258Z AUTO 00000KT 7SM CLR 00/M03 A3046 RMK AO2 SLP320 T10031026 55002 $
Loading
Personal Weather Stations






























Interactive Weather Map New forecast layout! Learn more

10-Day Weather Forecast

Advertisements
Track Severe Weather on mobile